Heth, Arkansas
Current Conditions -  °F | °C
As of 4:53 PM on Monday 24 Nov 2014 (Local Time) from KAWM Reporting Station
Clear Clear  
Wind Chill: 52°   Ceiling: Unl
Heat Index: 52°   Visibility: 10mi
Dew Point: 33°   Wind: 3mph
Humidity: 49%   Direction: 230°SW
Pressure: 29.94"   Gusts: NA
Location:  35.08°N, 90.49°W
Report Text: KAWM 242253Z AUTO 23003KT 10SM CLR 11/01 A2994 RMK AO2 SLP140 T01110006
Loading
Personal Weather Stations






























Interactive Weather Map New forecast layout! Learn more

10-Day Weather Forecast

Advertisements
Track Severe Weather on mobile